Time;durP1;ratioP1;P1;durP2;ratioP2;P2;SDS_P1;SDS_P2;PMS_P1;PMS_P2;Temp;Humidity;BMP_temperature;BMP_pressure;BME280_temperature;BME280_humidity;BME280_pressure;Samples;Min_cycle;Max_cycle;Signal;HPM_P1;HPM_P2
2022/04/13 00:01:25;;;;;;;44.77;20.33;;;5.10;99.90;;;;;;10368204;28;20220;-78
2022/04/13 00:06:46;;;;;;;45.10;20.93;;;5.00;99.90;;;;;;10402475;28;20269;-79
2022/04/13 00:12:08;;;;;;;49.13;19.60;;;4.80;99.90;;;;;;10401229;28;20234;-80
2022/04/13 00:17:30;;;;;;;46.60;19.57;;;4.80;99.90;;;;;;10387143;28;20226;-80
2022/04/13 00:22:51;;;;;;;42.77;19.57;;;4.80;99.90;;;;;;10319565;28;20213;-80
2022/04/13 00:28:13;;;;;;;40.27;18.90;;;4.70;99.90;;;;;;10320874;28;20223;-79
2022/04/13 00:33:35;;;;;;;37.30;17.47;;;4.70;99.90;;;;;;10320401;28;20223;-79
2022/04/13 00:38:56;;;;;;;39.40;17.70;;;4.70;99.90;;;;;;10321355;28;20248;-79
2022/04/13 00:44:17;;;;;;;36.20;17.23;;;4.70;99.90;;;;;;10320566;28;20202;-78
2022/04/13 00:49:39;;;;;;;38.90;18.37;;;4.70;99.90;;;;;;10320756;28;20194;-78
2022/04/13 00:55:02;;;;;;;39.77;19.10;;;4.70;99.90;;;;;;10358868;28;20197;-78
2022/04/13 01:00:24;;;;;;;33.97;18.20;;;4.60;99.90;;;;;;10358945;28;20199;-78
2022/04/13 01:05:47;;;;;;;28.67;14.77;;;4.60;99.90;;;;;;10358781;28;20204;-79
2022/04/13 01:11:11;;;;;;;27.23;11.83;;;4.60;99.90;;;;;;10358255;28;20213;-82
2022/04/13 01:16:34;;;;;;;20.13;9.97;;;4.50;99.90;;;;;;10358297;28;20229;-77
2022/04/13 01:21:59;;;;;;;17.63;8.43;;;4.40;99.90;;;;;;10357990;28;20497;-77
2022/04/13 01:27:20;;;;;;;17.03;8.27;;;4.40;99.90;;;;;;10328105;28;20213;-78
2022/04/13 01:32:41;;;;;;;13.83;7.63;;;4.50;99.90;;;;;;10358700;28;20191;-78
2022/04/13 01:38:03;;;;;;;16.13;7.37;;;4.50;99.90;;;;;;10358922;28;20242;-77
2022/04/13 01:43:25;;;;;;;13.17;6.90;;;4.40;99.90;;;;;;10332564;28;20203;-77
2022/04/13 01:48:46;;;;;;;15.73;7.83;;;4.50;99.90;;;;;;10317682;28;20202;-78
2022/04/13 01:54:07;;;;;;;16.63;7.87;;;4.50;99.90;;;;;;10352907;28;20195;-77
2022/04/13 01:59:29;;;;;;;16.17;8.13;;;4.50;99.90;;;;;;10357437;28;20245;-78
2022/04/13 02:04:51;;;;;;;18.27;8.97;;;4.40;99.90;;;;;;10361893;28;20504;-79
2022/04/13 02:10:12;;;;;;;17.40;8.53;;;4.40;99.90;;;;;;10370330;28;20192;-78
2022/04/13 02:15:33;;;;;;;20.20;10.60;;;4.40;99.90;;;;;;10355714;28;20249;-78
2022/04/13 02:20:55;;;;;;;18.97;10.00;;;4.40;99.90;;;;;;10341828;28;20199;-78
2022/04/13 02:26:17;;;;;;;25.63;11.77;;;4.30;99.90;;;;;;10341970;28;20215;-78
2022/04/13 02:31:38;;;;;;;24.77;11.80;;;4.40;99.90;;;;;;10325504;28;20202;-80
2022/04/13 02:37:00;;;;;;;27.63;14.13;;;4.30;99.90;;;;;;10341307;28;20309;-79
2022/04/13 02:42:22;;;;;;;31.77;15.33;;;4.20;99.90;;;;;;10352034;28;20204;-79
2022/04/13 02:47:43;;;;;;;29.90;16.23;;;;;;;;;;10354695;28;20244;-80
2022/04/13 02:53:04;;;;;;;26.83;15.43;;;3.90;99.90;;;;;;10355650;28;20200;-79
2022/04/13 02:58:26;;;;;;;32.50;16.67;;;3.90;99.90;;;;;;10355645;28;20304;-77
2022/04/13 03:03:47;;;;;;;35.10;19.17;;;3.90;99.90;;;;;;10365060;28;20202;-79
2022/04/13 03:09:09;;;;;;;38.80;19.53;;;3.80;99.90;;;;;;10395107;28;20206;-78
2022/04/13 03:14:31;;;;;;;44.93;20.67;;;3.80;99.90;;;;;;10395383;28;20221;-79
2022/04/13 03:19:53;;;;;;;41.27;20.10;;;3.80;99.90;;;;;;10314310;28;20386;-80
2022/04/13 03:25:14;;;;;;;35.87;18.57;;;3.70;99.90;;;;;;10314064;28;20223;-80
2022/04/13 03:30:35;;;;;;;32.27;17.80;;;3.70;99.90;;;;;;10313483;28;20521;-78
2022/04/13 03:35:56;;;;;;;35.00;17.53;;;3.60;99.90;;;;;;10322575;28;20305;-80
2022/04/13 03:41:18;;;;;;;37.30;19.00;;;3.70;99.90;;;;;;10332600;28;20249;-78
2022/04/13 03:46:39;;;;;;;37.70;19.97;;;3.80;99.90;;;;;;10339216;28;20234;-79
2022/04/13 03:52:00;;;;;;;38.77;19.23;;;3.70;99.90;;;;;;10361851;28;20200;-79
2022/04/13 03:57:21;;;;;;;39.27;19.57;;;3.80;99.90;;;;;;10360936;28;20247;-78
2022/04/13 04:02:43;;;;;;;29.63;16.13;;;3.70;99.90;;;;;;10378604;28;20197;-79
2022/04/13 04:08:05;;;;;;;29.57;15.13;;;3.70;99.90;;;;;;10387857;28;20192;-80
2022/04/13 04:13:27;;;;;;;36.07;16.47;;;3.70;99.90;;;;;;10400925;28;20197;-77
2022/04/13 04:18:50;;;;;;;30.47;15.17;;;3.80;99.90;;;;;;10350342;28;20553;-78
2022/04/13 04:24:11;;;;;;;29.23;14.97;;;3.80;99.90;;;;;;10361251;28;20190;-77
2022/04/13 04:29:32;;;;;;;27.57;14.33;;;3.80;99.90;;;;;;10345986;28;20456;-78
2022/04/13 04:34:53;;;;;;;27.80;14.47;;;3.90;99.90;;;;;;10360559;28;20280;-78
2022/04/13 04:40:15;;;;;;;25.40;13.70;;;4.00;99.90;;;;;;10369573;28;20430;-79
2022/04/13 04:45:37;;;;;;;24.63;13.53;;;4.10;99.90;;;;;;10359253;28;20404;-78
2022/04/13 04:50:58;;;;;;;24.87;13.67;;;4.20;99.90;;;;;;10358760;28;20389;-78
2022/04/13 04:56:20;;;;;;;35.87;19.03;;;4.40;99.90;;;;;;10359929;28;20317;-78
2022/04/13 05:01:42;;;;;;;36.07;19.53;;;4.60;99.90;;;;;;10369512;28;20203;-78
2022/04/13 05:07:04;;;;;;;33.40;19.73;;;4.70;99.90;;;;;;10399905;28;20191;-79
2022/04/13 05:12:26;;;;;;;36.63;17.93;;;4.80;99.90;;;;;;10385117;28;20526;-80
2022/04/13 05:17:47;;;;;;;39.00;18.17;;;4.90;99.90;;;;;;10353631;28;20227;-80
2022/04/13 05:23:08;;;;;;;32.23;16.60;;;5.10;99.90;;;;;;10359192;28;20408;-82
2022/04/13 05:28:30;;;;;;;27.23;14.77;;;5.20;99.90;;;;;;10359189;28;20214;-80
2022/04/13 05:33:54;;;;;;;24.47;13.73;;;5.40;99.90;;;;;;10359484;28;20235;-81
2022/04/13 05:39:15;;;;;;;27.23;13.77;;;5.50;99.90;;;;;;10358666;28;20233;-82
2022/04/13 05:44:37;;;;;;;24.13;12.03;;;5.70;99.90;;;;;;10322190;28;20396;-81
2022/04/13 05:49:58;;;;;;;17.77;9.03;;;6.00;99.90;;;;;;10358056;28;20205;-81
2022/04/13 05:55:19;;;;;;;18.67;9.53;;;6.20;99.90;;;;;;10356164;28;20201;-80
2022/04/13 06:00:41;;;;;;;15.73;8.13;;;6.50;99.90;;;;;;10345236;28;20208;-79
2022/04/13 06:06:02;;;;;;;17.67;8.43;;;6.80;99.90;;;;;;10398619;28;20505;-82
2022/04/13 06:11:23;;;;;;;16.73;8.20;;;7.00;99.90;;;;;;10396775;28;20223;-83
2022/04/13 06:16:44;;;;;;;16.07;7.57;;;7.10;99.90;;;;;;10371474;28;20269;-79
2022/04/13 06:22:05;;;;;;;15.20;7.63;;;7.20;99.90;;;;;;10357785;28;20193;-79
2022/04/13 06:27:27;;;;;;;12.13;7.20;;;7.40;99.90;;;;;;10356532;28;20191;-82
2022/04/13 06:32:48;;;;;;;16.57;8.60;;;8.10;98.30;;;;;;10342451;28;20187;-79
2022/04/13 06:38:09;;;;;;;17.20;10.47;;;8.70;97.20;;;;;;10357005;28;20233;-82
2022/04/13 06:43:31;;;;;;;19.53;9.27;;;8.90;95.80;;;;;;10362470;28;20411;-80
2022/04/13 06:48:52;;;;;;;18.03;9.73;;;8.80;95.60;;;;;;10301481;28;20200;-80
2022/04/13 06:54:13;;;;;;;23.73;10.13;;;8.70;96.10;;;;;;10354520;28;20210;-80
2022/04/13 06:59:35;;;;;;;13.67;8.53;;;8.50;97.00;;;;;;10325322;28;20877;-84
2022/04/13 07:04:57;;;;;;;16.17;8.97;;;8.70;96.50;;;;;;10390902;28;20451;-82
2022/04/13 07:10:18;;;;;;;20.47;8.77;;;8.90;95.40;;;;;;10380994;28;20272;-79
2022/04/13 07:15:39;;;;;;;13.77;7.33;;;9.00;95.00;;;;;;10343814;28;20307;-77
2022/04/13 07:21:01;;;;;;;12.67;6.87;;;9.10;95.30;;;;;;10341634;28;20196;-81
2022/04/13 07:26:22;;;;;;;16.37;8.57;;;9.10;94.20;;;;;;10354210;28;20205;-81
2022/04/13 07:31:44;;;;;;;15.43;8.10;;;9.10;94.90;;;;;;10349885;28;20565;-80
2022/04/13 07:37:05;;;;;;;12.63;7.73;;;9.20;94.30;;;;;;10349435;28;20245;-79
2022/04/13 07:42:27;;;;;;;11.73;6.87;;;9.30;94.70;;;;;;10335958;28;20275;-79
2022/04/13 07:47:49;;;;;;;13.33;7.00;;;9.50;93.40;;;;;;10343178;28;20203;-78
2022/04/13 07:53:11;;;;;;;11.07;6.70;;;9.70;93.10;;;;;;10347694;28;20279;-80
2022/04/13 07:58:32;;;;;;;14.17;8.93;;;9.90;92.70;;;;;;10348059;28;20360;-79
2022/04/13 08:03:53;;;;;;;26.90;9.67;;;10.10;92.40;;;;;;10377045;28;20439;-80
2022/04/13 08:09:24;;;;;;;18.57;8.93;;;10.00;92.20;;;;;;10370335;28;20205;-80
2022/04/13 08:14:46;;;;;;;17.33;8.43;;;10.20;91.10;;;;;;10348425;28;20741;-80
2022/04/13 08:20:12;;;;;;;13.60;8.40;;;10.30;91.20;;;;;;10337234;28;20323;-81
2022/04/13 08:25:33;;;;;;;15.40;7.90;;;10.60;90.80;;;;;;10342779;28;20204;-79
2022/04/13 08:30:55;;;;;;;18.00;8.10;;;10.80;87.90;;;;;;10324897;28;20220;-84
2022/04/13 08:36:17;;;;;;;17.27;8.23;;;11.10;84.70;;;;;;10340769;28;20240;-80
2022/04/13 08:41:50;;;;;;;17.97;8.20;;;11.70;75.40;;;;;;10347972;28;20402;-80
2022/04/13 08:47:15;;;;;;;15.68;7.78;;;12.70;67.10;;;;;;10331716;28;20205;-81
2022/04/13 08:52:38;;;;;;;13.40;7.70;;;13.60;56.60;;;;;;10323830;28;20200;-80
2022/04/13 08:58:08;;;;;;;13.20;7.30;;;;;;;;;;10337037;28;20628;-82
2022/04/13 09:03:48;;;;;;;15.90;7.53;;;14.60;44.00;;;;;;10346153;28;20401;-80
2022/04/13 09:09:18;;;;;;;15.35;7.03;;;15.20;38.30;;;;;;10377187;28;20210;-81
2022/04/13 09:14:42;;;;;;;8.95;5.63;;;15.80;34.90;;;;;;10353021;28;20189;-82
2022/04/13 09:20:03;;;;;;;12.63;6.70;;;15.90;31.00;;;;;;10339034;28;20227;-82
2022/04/13 09:25:26;;;;;;;10.07;5.40;;;15.60;30.10;;;;;;10323786;28;20212;-79
2022/04/13 09:30:47;;;;;;;10.93;6.03;;;15.30;29.10;;;;;;10353833;28;20567;-78
2022/04/13 09:36:09;;;;;;;11.57;6.25;;;15.10;29.80;;;;;;10321937;28;20519;-82
2022/04/13 09:41:36;;;;;;;13.15;5.22;;;15.00;29.70;;;;;;10356376;28;20221;-80
2022/04/13 09:47:11;;;;;;;7.28;5.43;;;15.60;28.20;;;;;;10361810;28;20192;-84
2022/04/13 09:52:38;;;;;;;12.25;5.78;;;16.20;25.90;;;;;;10348696;28;20215;-83
2022/04/13 09:58:13;;;;;;;9.68;5.32;;;16.70;24.70;;;;;;10351623;28;20243;-81
2022/04/13 10:03:35;;;;;;;11.10;5.57;;;16.90;23.40;;;;;;10342493;28;20208;-84
2022/04/13 10:09:14;;;;;;;6.38;4.20;;;16.00;23.80;;;;;;10352588;28;20205;-82
2022/04/13 10:14:36;;;;;;;12.45;4.82;;;15.70;24.00;;;;;;10351305;28;20219;-80
2022/04/13 10:19:58;;;;;;;10.73;4.88;;;16.40;23.60;;;;;;10351924;28;20237;-81
2022/04/13 10:25:20;;;;;;;7.80;4.75;;;16.30;22.90;;;;;;10351578;28;20202;-80
2022/04/13 10:30:42;;;;;;;8.90;5.20;;;15.90;23.30;;;;;;10337446;28;20250;-77
2022/04/13 10:36:04;;;;;;;7.47;4.50;;;15.80;23.20;;;;;;10351378;28;20398;-85
2022/04/13 10:41:26;;;;;;;10.15;4.60;;;15.50;23.50;;;;;;10337536;28;20235;-80
2022/04/13 10:46:49;;;;;;;7.97;4.68;;;15.20;24.00;;;;;;10342638;28;20279;-82
2022/04/13 10:52:16;;;;;;;7.63;4.85;;;14.70;24.30;;;;;;10323973;28;20202;-80
2022/04/13 10:57:45;;;;;;;8.43;4.68;;;15.00;24.80;;;;;;10308929;28;20295;-82
2022/04/13 11:03:06;;;;;;;9.73;5.75;;;16.50;23.50;;;;;;10365829;28;20208;-80
2022/04/13 11:09:04;;;;;;;6.43;4.90;;;17.70;21.90;;;;;;10380228;28;20215;-78
2022/04/13 11:14:27;;;;;;;13.60;5.88;;;18.70;19.50;;;;;;10350000;28;20228;-81
2022/04/13 11:19:48;;;;;;;8.82;5.50;;;18.60;18.10;;;;;;10343554;28;20257;-83
2022/04/13 11:25:10;;;;;;;13.77;5.82;;;19.20;18.30;;;;;;10308477;28;20209;-78
2022/04/13 11:31:00;;;;;;;9.02;5.05;;;19.40;17.30;;;;;;10308884;28;20209;-79
2022/04/13 11:36:24;;;;;;;6.82;4.70;;;19.60;17.40;;;;;;10307313;28;20257;-79
2022/04/13 11:42:03;;;;;;;9.23;5.20;;;19.80;17.00;;;;;;10338834;28;20538;-76
2022/04/13 11:47:43;;;;;;;11.18;6.15;;;19.80;16.60;;;;;;10351623;28;20272;-78
2022/04/13 11:53:06;;;;;;;12.07;5.80;;;19.60;17.10;;;;;;10362306;28;20213;-79
2022/04/13 11:58:30;;;;;;;9.15;5.50;;;19.60;17.30;;;;;;10332009;28;20233;-79
2022/04/13 12:03:51;;;;;;;8.45;4.63;;;19.10;15.80;;;;;;10341447;28;20231;-80
2022/04/13 12:09:14;;;;;;;7.78;5.18;;;19.30;16.30;;;;;;10337553;28;20221;-79
2022/04/13 12:14:40;;;;;;;6.40;4.43;;;19.60;16.60;;;;;;10354969;28;20272;-79
2022/04/13 12:20:01;;;;;;;8.18;4.88;;;19.30;15.70;;;;;;10343870;28;20313;-81
2022/04/13 12:25:23;;;;;;;9.88;4.30;;;19.00;16.30;;;;;;10346331;28;20201;-80
2022/04/13 12:30:58;;;;;;;8.82;4.60;;;19.10;16.50;;;;;;10365756;28;20280;-79
2022/04/13 12:36:19;;;;;;;7.63;4.80;;;19.20;16.10;;;;;;10354781;28;20232;-81
2022/04/13 12:41:40;;;;;;;11.63;5.45;;;19.20;15.60;;;;;;10356707;28;20204;-84
2022/04/13 12:47:06;;;;;;;7.50;5.63;;;18.90;15.50;;;;;;10367678;28;20230;-77
2022/04/13 12:52:28;;;;;;;10.27;6.93;;;19.20;15.60;;;;;;10353018;28;20232;-85
2022/04/13 12:57:49;;;;;;;10.95;6.80;;;19.10;15.60;;;;;;10334521;28;20301;-82
2022/04/13 13:03:11;;;;;;;7.30;5.25;;;19.00;15.10;;;;;;10340571;28;20205;-87
2022/04/13 13:08:32;;;;;;;8.55;6.07;;;18.40;15.40;;;;;;10354845;28;20544;-85
2022/04/13 13:14:07;;;;;;;14.10;6.80;;;18.00;16.30;;;;;;10358367;28;20511;-78
2022/04/13 13:19:33;;;;;;;10.70;7.07;;;17.90;16.50;;;;;;10357184;28;20238;-80
2022/04/13 13:25:01;;;;;;;9.35;6.40;;;17.90;16.50;;;;;;10366292;28;20193;-80
2022/04/13 13:30:23;;;;;;;9.43;6.55;;;18.20;16.60;;;;;;10361041;28;20216;-80
2022/04/13 13:35:45;;;;;;;10.73;6.05;;;18.20;16.60;;;;;;10357952;28;20241;-81
2022/04/13 13:41:12;;;;;;;12.63;7.25;;;18.10;16.70;;;;;;10359946;28;20527;-80
2022/04/13 13:46:33;;;;;;;13.45;7.32;;;17.70;17.30;;;;;;10361418;28;20211;-82
2022/04/13 13:51:54;;;;;;;11.18;6.55;;;17.30;17.40;;;;;;10355598;28;20209;-83
2022/04/13 13:57:15;;;;;;;10.02;6.78;;;17.00;17.00;;;;;;10327659;28;20235;-81
2022/04/13 14:02:37;;;;;;;9.35;6.28;;;16.80;17.60;;;;;;10358263;28;20272;-79
2022/04/13 14:08:00;;;;;;;10.25;6.55;;;16.80;18.10;;;;;;10357265;28;20243;-81
2022/04/13 14:13:22;;;;;;;11.68;8.25;;;16.90;17.90;;;;;;10361583;28;20201;-81
2022/04/13 14:18:44;;;;;;;11.82;6.85;;;17.20;18.00;;;;;;10345837;28;20233;-81
2022/04/13 14:24:06;;;;;;;8.68;5.90;;;17.30;18.20;;;;;;10315297;28;20215;-77
2022/04/13 14:29:27;;;;;;;10.00;7.05;;;17.30;18.10;;;;;;10376332;28;20228;-82
2022/04/13 14:34:48;;;;;;;13.20;8.15;;;17.30;18.10;;;;;;10358491;28;20244;-82
2022/04/13 14:40:10;;;;;;;11.98;6.80;;;17.40;18.50;;;;;;10358620;28;20251;-79
2022/04/13 14:45:32;;;;;;;11.80;7.15;;;17.40;18.20;;;;;;10344788;28;20205;-81
2022/04/13 14:50:54;;;;;;;10.68;7.60;;;17.00;18.10;;;;;;10333375;28;20510;-82
2022/04/13 14:56:16;;;;;;;56.15;25.92;;;16.80;18.80;;;;;;10324140;28;20284;-79
2022/04/13 15:01:38;;;;;;;31.58;20.35;;;16.70;19.40;;;;;;10374130;28;20389;-79
2022/04/13 15:06:59;;;;;;;24.85;16.30;;;16.60;19.80;;;;;;10364094;28;20283;-82
2022/04/13 15:12:23;;;;;;;10.15;7.68;;;16.50;19.50;;;;;;10322684;28;20446;-82
2022/04/13 15:17:44;;;;;;;9.90;6.20;;;16.40;19.30;;;;;;10352579;28;20226;-80
2022/04/13 15:23:06;;;;;;;8.32;6.63;;;16.20;19.10;;;;;;10354395;28;20257;-79
2022/04/13 15:28:27;;;;;;;12.20;7.43;;;16.10;19.40;;;;;;10345545;28;20215;-79
2022/04/13 15:33:49;;;;;;;12.07;7.55;;;16.10;19.30;;;;;;10343995;28;20378;-81
2022/04/13 15:39:10;;;;;;;12.73;7.50;;;15.80;19.90;;;;;;10362081;28;20223;-80
2022/04/13 15:44:32;;;;;;;24.42;15.20;;;15.80;20.10;;;;;;10373081;28;20209;-83
2022/04/13 15:49:54;;;;;;;13.57;7.15;;;15.70;20.30;;;;;;10329472;28;20214;-79
2022/04/13 15:55:16;;;;;;;15.85;8.50;;;15.50;20.50;;;;;;10344585;28;20499;-79
2022/04/13 16:00:38;;;;;;;13.35;8.57;;;15.30;20.60;;;;;;10362386;28;20251;-80
2022/04/13 16:06:00;;;;;;;9.18;6.65;;;15.20;21.00;;;;;;10372448;28;20205;-81
2022/04/13 16:11:21;;;;;;;12.38;8.43;;;15.10;21.30;;;;;;10345205;28;20204;-80
2022/04/13 16:16:42;;;;;;;9.48;7.13;;;15.00;21.40;;;;;;10330712;28;20216;-83
2022/04/13 16:22:04;;;;;;;11.93;7.68;;;14.80;22.00;;;;;;10312651;28;20299;-83
2022/04/13 16:27:25;;;;;;;14.98;8.40;;;14.70;22.70;;;;;;10361112;28;20271;-79
2022/04/13 16:32:46;;;;;;;10.32;7.88;;;14.60;22.80;;;;;;10350010;28;20197;-82
2022/04/13 16:38:07;;;;;;;13.63;8.20;;;14.40;23.00;;;;;;10361585;28;20271;-83
2022/04/13 16:43:46;;;;;;;10.60;7.28;;;14.40;23.60;;;;;;10338903;28;20202;-81
2022/04/13 16:49:08;;;;;;;14.85;8.60;;;14.20;23.70;;;;;;10353907;28;20220;-82
2022/04/13 16:54:29;;;;;;;14.40;9.57;;;14.10;24.10;;;;;;10352380;28;20238;-80
2022/04/13 16:59:50;;;;;;;13.70;8.90;;;14.00;24.70;;;;;;10342341;28;20294;-79
2022/04/13 17:05:12;;;;;;;14.10;8.75;;;13.90;25.00;;;;;;10330945;28;20237;-79
2022/04/13 17:10:35;;;;;;;13.20;8.95;;;13.80;25.50;;;;;;10344945;28;20214;-84
2022/04/13 17:15:56;;;;;;;12.82;9.02;;;13.60;25.90;;;;;;10371855;28;20231;-82
2022/04/13 17:21:18;;;;;;;12.73;8.63;;;13.50;26.40;;;;;;10345604;28;20218;-80
2022/04/13 17:26:40;;;;;;;19.55;11.27;;;13.50;27.00;;;;;;10361489;28;20222;-83
2022/04/13 17:32:01;;;;;;;18.92;10.70;;;13.30;27.40;;;;;;10341578;28;20210;-83
2022/04/13 17:37:23;;;;;;;18.42;10.68;;;13.20;27.90;;;;;;10354960;28;20246;-81
2022/04/13 17:42:44;;;;;;;22.40;12.07;;;13.00;28.60;;;;;;10364000;28;20208;-79
2022/04/13 17:48:06;;;;;;;18.60;12.30;;;12.90;29.30;;;;;;10327996;28;20209;-83
2022/04/13 17:53:27;;;;;;;19.92;11.07;;;12.70;30.00;;;;;;10333348;28;20519;-80
2022/04/13 17:58:49;;;;;;;25.35;13.90;;;12.60;30.80;;;;;;10340937;28;20235;-82
2022/04/13 18:04:10;;;;;;;28.70;13.73;;;12.40;31.80;;;;;;10348837;28;20207;-82
2022/04/13 18:09:31;;;;;;;22.20;12.65;;;12.20;32.70;;;;;;10355548;28;20265;-80
2022/04/13 18:14:52;;;;;;;20.45;11.82;;;12.10;33.50;;;;;;10353262;28;20507;-81
2022/04/13 18:20:14;;;;;;;18.40;10.75;;;12.00;34.60;;;;;;10356964;28;20228;-82
2022/04/13 18:25:35;;;;;;;25.55;14.05;;;11.90;35.90;;;;;;10350547;28;20236;-82
2022/04/13 18:30:57;;;;;;;26.42;14.10;;;;;;;;;;10359992;28;20215;-79
2022/04/13 18:36:21;;;;;;;23.10;14.13;;;11.60;38.40;;;;;;10342568;28;20645;-79
2022/04/13 18:41:42;;;;;;;26.08;14.73;;;11.50;40.30;;;;;;10339674;28;20453;-78
2022/04/13 18:47:07;;;;;;;28.30;15.30;;;11.40;41.60;;;;;;10358308;28;20271;-80
2022/04/13 18:52:28;;;;;;;28.83;14.05;;;11.30;42.80;;;;;;10332579;28;20238;-81
2022/04/13 18:57:50;;;;;;;26.17;13.37;;;11.20;44.30;;;;;;10343610;28;20448;-79
2022/04/13 19:03:11;;;;;;;27.05;15.23;;;11.10;46.40;;;;;;10346537;28;20492;-83
2022/04/13 19:08:40;;;;;;;28.63;17.42;;;11.00;48.00;;;;;;10323292;28;20210;-81
2022/04/13 19:14:04;;;;;;;33.30;18.10;;;10.90;49.90;;;;;;10338803;28;20205;-82
2022/04/13 19:19:27;;;;;;;29.93;18.00;;;10.80;50.70;;;;;;10341255;28;20222;-79
2022/04/13 19:24:49;;;;;;;28.57;16.23;;;10.70;51.80;;;;;;10329741;28;20216;-80
2022/04/13 19:30:11;;;;;;;25.30;17.23;;;10.50;53.10;;;;;;10343714;28;20236;-79
2022/04/13 19:35:32;;;;;;;39.33;20.77;;;10.40;54.40;;;;;;10348823;28;20240;-80
2022/04/13 19:40:54;;;;;;;32.03;17.30;;;10.40;55.60;;;;;;10355008;28;20222;-81
2022/04/13 19:46:15;;;;;;;30.47;16.70;;;10.30;57.50;;;;;;10343007;28;20505;-82
2022/04/13 19:51:36;;;;;;;32.47;17.60;;;10.30;58.20;;;;;;10356466;28;20197;-82
2022/04/13 19:56:57;;;;;;;31.97;17.53;;;10.20;60.10;;;;;;10360776;28;20203;-79
2022/04/13 20:02:20;;;;;;;32.30;17.00;;;10.20;61.10;;;;;;10371073;28;20234;-78
2022/04/13 20:07:42;;;;;;;30.13;16.97;;;10.00;62.00;;;;;;10334555;28;20216;-80
2022/04/13 20:13:03;;;;;;;23.70;15.23;;;10.00;63.70;;;;;;10379691;28;20201;-81
2022/04/13 20:18:26;;;;;;;26.37;15.53;;;10.00;64.00;;;;;;10346599;28;20240;-83
2022/04/13 20:23:47;;;;;;;24.77;15.83;;;10.00;66.00;;;;;;10356065;28;20232;-82
2022/04/13 20:29:09;;;;;;;25.00;15.23;;;10.00;66.10;;;;;;10359444;28;20200;-78
2022/04/13 20:34:31;;;;;;;23.40;16.27;;;9.90;66.60;;;;;;10333344;28;20275;-79
2022/04/13 20:39:52;;;;;;;22.13;15.87;;;9.90;67.50;;;;;;10344474;28;20531;-81
2022/04/13 20:45:13;;;;;;;26.23;15.50;;;9.90;68.80;;;;;;10357164;28;20213;-80
2022/04/13 20:50:36;;;;;;;25.33;16.23;;;9.80;70.30;;;;;;10344999;28;20215;-80
2022/04/13 20:56:00;;;;;;;29.23;17.17;;;9.80;70.30;;;;;;10367475;28;20203;-79
2022/04/13 21:01:21;;;;;;;21.73;14.97;;;9.70;71.60;;;;;;10347674;28;20300;-79
2022/04/13 21:06:43;;;;;;;28.77;14.63;;;9.70;72.40;;;;;;10381539;28;20208;-80
2022/04/13 21:12:05;;;;;;;22.40;13.37;;;9.60;74.00;;;;;;10360111;28;20211;-83
2022/04/13 21:17:26;;;;;;;21.07;14.33;;;9.60;75.80;;;;;;10337744;28;20209;-81
2022/04/13 21:22:47;;;;;;;23.67;14.03;;;9.50;75.40;;;;;;10350813;28;20431;-84
2022/04/13 21:28:09;;;;;;;24.80;13.80;;;9.40;77.40;;;;;;10352760;28;20213;-81
2022/04/13 21:33:30;;;;;;;22.77;14.00;;;9.40;77.60;;;;;;10335048;28;20465;-82
2022/04/13 21:38:51;;;;;;;30.47;13.77;;;9.40;78.50;;;;;;10356581;28;20404;-83
2022/04/13 21:44:12;;;;;;;23.53;13.93;;;9.40;79.30;;;;;;10357722;28;20229;-82
2022/04/13 21:49:33;;;;;;;26.80;15.70;;;9.30;79.60;;;;;;10339953;28;20212;-83
2022/04/13 21:54:54;;;;;;;32.80;17.20;;;9.20;80.40;;;;;;10358472;28;20212;-81
2022/04/13 22:00:46;;;;;;;24.43;14.73;;;9.20;80.20;;;;;;10367072;28;20312;-84
2022/04/13 22:06:07;;;;;;;21.23;13.47;;;9.20;81.50;;;;;;10380201;28;20207;-81
2022/04/13 22:11:28;;;;;;;24.13;14.13;;;9.10;82.90;;;;;;10391658;28;20208;-83
2022/04/13 22:16:50;;;;;;;19.77;12.60;;;9.00;82.50;;;;;;10351787;28;20473;-81
2022/04/13 22:22:12;;;;;;;21.47;12.87;;;9.00;84.20;;;;;;10355865;28;20267;-84
2022/04/13 22:27:33;;;;;;;22.77;13.93;;;9.00;86.80;;;;;;10382233;28;20215;-82
2022/04/13 22:32:54;;;;;;;25.97;14.30;;;8.90;87.20;;;;;;10390858;28;20229;-82
2022/04/13 22:38:16;;;;;;;22.57;14.33;;;8.80;88.20;;;;;;10307817;28;20245;-82
2022/04/13 22:43:37;;;;;;;22.20;14.47;;;8.70;89.90;;;;;;10328944;28;20513;-81
2022/04/13 22:48:58;;;;;;;22.13;14.13;;;8.60;91.50;;;;;;10339879;28;20566;-83
2022/04/13 22:54:20;;;;;;;25.67;15.50;;;8.60;92.00;;;;;;10342843;28;20212;-83
2022/04/13 22:59:42;;;;;;;28.40;16.03;;;8.50;92.30;;;;;;10352471;28;20240;-81
2022/04/13 23:05:04;;;;;;;28.43;17.27;;;8.50;92.50;;;;;;10362214;28;20444;-78
2022/04/13 23:10:26;;;;;;;27.83;16.93;;;8.50;92.90;;;;;;10347166;28;20207;-82
2022/04/13 23:15:47;;;;;;;29.93;16.43;;;8.50;92.50;;;;;;10339405;28;20203;-83
2022/04/13 23:21:08;;;;;;;25.53;15.43;;;8.40;92.80;;;;;;10322890;28;20240;-82
2022/04/13 23:26:30;;;;;;;25.43;15.80;;;8.40;93.00;;;;;;10310513;28;20211;-82
2022/04/13 23:31:51;;;;;;;25.83;15.03;;;8.40;94.10;;;;;;10353847;28;20200;-80
2022/04/13 23:37:12;;;;;;;25.17;15.00;;;8.40;93.60;;;;;;10354041;28;20231;-81
2022/04/13 23:42:34;;;;;;;27.63;15.23;;;8.20;94.20;;;;;;10356710;28;20550;-79
2022/04/13 23:47:56;;;;;;;26.40;15.80;;;8.20;94.70;;;;;;10331179;28;20205;-78
2022/04/13 23:53:17;;;;;;;26.93;16.13;;;8.10;94.60;;;;;;10352379;28;20203;-79
2022/04/13 23:58:38;;;;;;;26.80;16.10;;;8.10;94.90;;;;;;10339905;28;20269;-81
